Time;durP1;ratioP1;P1;durP2;ratioP2;P2;SDS_P1;SDS_P2;PMS_P1;PMS_P2;Temp;Humidity;BMP_temperature;BMP_pressure;BME280_temperature;BME280_humidity;BME280_pressure;Samples;Min_cycle;Max_cycle;Signal;HPM_P1;HPM_P2
2023/12/08 00:02:09;;;;;;;4.10;3.03;;;;;0.50;93223.00;;;;7401794;19;20618;-75
2023/12/08 00:04:44;;;;;;;4.43;2.60;;;;;0.40;93216.00;;;;7400528;19;20129;-78
2023/12/08 00:07:18;;;;;;;3.33;2.50;;;;;0.30;93216.00;;;;7402807;19;20656;-77
2023/12/08 00:09:52;;;;;;;4.03;2.70;;;;;0.30;93218.00;;;;7400416;19;20144;-75
2023/12/08 00:12:20;;;;;;;4.30;3.10;;;;;0.40;93218.00;;;;7400663;19;20641;-77
2023/12/08 00:14:53;;;;;;;4.53;2.93;;;;;0.50;93214.00;;;;7401057;19;20125;-77
2023/12/08 00:17:29;;;;;;;3.93;2.60;;;;;0.40;93214.00;;;;7401855;19;20133;-76
2023/12/08 00:19:57;;;;;;;5.33;3.10;;;;;0.50;93218.00;;;;7399904;19;20149;-76
2023/12/08 00:22:34;;;;;;;4.50;3.07;;;;;0.40;93224.00;;;;7402304;19;20213;-76
2023/12/08 00:25:02;;;;;;;3.63;2.80;;;;;0.50;93217.00;;;;7398293;19;20156;-77
2023/12/08 00:27:45;;;;;;;3.17;2.83;;;;;0.40;93216.00;;;;7392163;19;20589;-75
2023/12/08 00:30:21;;;;;;;4.00;2.83;;;;;0.50;93210.00;;;;7400776;19;20121;-75
2023/12/08 00:32:55;;;;;;;3.97;2.63;;;;;0.50;93204.00;;;;7400212;19;20132;-76
2023/12/08 00:35:29;;;;;;;4.17;2.73;;;;;0.40;93210.00;;;;7400273;19;20174;-78
2023/12/08 00:38:04;;;;;;;5.50;2.93;;;;;0.40;93206.00;;;;7399145;19;20140;-76
2023/12/08 00:40:32;;;;;;;3.77;2.60;;;;;0.50;93192.00;;;;7399478;19;20604;-75
2023/12/08 00:43:08;;;;;;;4.43;3.03;;;;;0.50;93202.00;;;;7400923;19;20161;-76
2023/12/08 00:45:36;;;;;;;3.90;2.70;;;;;0.60;93194.00;;;;7398831;19;20201;-75
2023/12/08 00:48:10;;;;;;;4.03;2.70;;;;;0.70;93188.00;;;;7398218;19;20588;-77
2023/12/08 00:50:44;;;;;;;6.43;2.80;;;;;0.70;93176.00;;;;7399667;19;20500;-75
2023/12/08 00:53:18;;;;;;;3.97;2.87;;;;;0.70;93174.00;;;;7399628;19;20488;-74
2023/12/08 00:55:52;;;;;;;4.23;2.73;;;;;0.90;93185.00;;;;7398657;19;20208;-76
2023/12/08 00:58:28;;;;;;;4.40;2.90;;;;;0.80;93192.00;;;;7400161;19;20621;-78
2023/12/08 01:00:58;;;;;;;4.80;2.80;;;;;0.90;93191.00;;;;7397610;19;20129;-75
2023/12/08 01:03:32;;;;;;;4.17;2.43;;;;;0.90;93194.00;;;;7398855;19;20228;-76
2023/12/08 01:06:00;;;;;;;3.97;2.83;;;;;0.80;93196.00;;;;7398072;19;20141;-77
2023/12/08 01:08:35;;;;;;;4.77;2.97;;;;;1.00;93185.00;;;;7399558;19;20212;-74
2023/12/08 01:11:09;;;;;;;4.90;3.20;;;;;0.90;93189.00;;;;7399708;19;20153;-75
2023/12/08 01:13:43;;;;;;;3.97;2.67;;;;;1.00;93189.00;;;;7396766;19;20169;-76
2023/12/08 01:16:11;;;;;;;4.00;2.93;;;;;1.00;93186.00;;;;7399197;19;20150;-75
2023/12/08 01:18:45;;;;;;;5.57;3.13;;;;;1.10;93186.00;;;;7399062;19;20149;-74
2023/12/08 01:21:13;;;;;;;4.57;3.17;;;;;1.10;93190.00;;;;7397154;19;20153;-75
2023/12/08 01:23:47;;;;;;;5.30;3.60;;;;;1.00;93183.00;;;;7398244;19;20211;-74
2023/12/08 01:26:14;;;;;;;6.17;3.80;;;;;1.10;93179.00;;;;7396196;19;20171;-75
2023/12/08 01:28:55;;;;;;;6.90;3.90;;;;;1.00;93171.00;;;;7398072;19;20136;-74
2023/12/08 01:31:23;;;;;;;5.63;3.97;;;;;1.00;93189.00;;;;7398660;19;20590;-77
2023/12/08 01:33:57;;;;;;;6.17;4.07;;;;;1.00;93185.00;;;;7397222;19;20584;-76
2023/12/08 01:36:31;;;;;;;7.70;4.60;;;;;1.00;93183.00;;;;7398515;19;20144;-75
2023/12/08 01:39:11;;;;;;;7.73;4.20;;;;;0.90;93194.00;;;;7397596;19;20137;-74
2023/12/08 01:41:57;;;;;;;6.60;4.17;;;;;0.90;93192.00;;;;7395932;19;20147;-76
2023/12/08 01:44:27;;;;;;;6.93;4.53;;;;;0.80;93190.00;;;;7397319;19;20170;-74
2023/12/08 01:47:04;;;;;;;6.43;4.37;;;;;0.80;93180.00;;;;7398648;19;20140;-75
2023/12/08 01:49:40;;;;;;;9.17;4.23;;;;;0.80;93194.00;;;;7398593;19;20143;-76
2023/12/08 01:52:09;;;;;;;7.27;4.43;;;;;0.70;93186.00;;;;7398907;19;20141;-76
2023/12/08 01:54:53;;;;;;;5.97;4.17;;;;;0.60;93179.00;;;;7406570;19;20628;-74
2023/12/08 01:57:27;;;;;;;7.07;4.17;;;;;0.50;93176.00;;;;7404893;19;20153;-77
2023/12/08 02:00:00;;;;;;;5.03;3.77;;;;;0.50;93180.00;;;;7405137;19;20192;-76
2023/12/08 02:02:36;;;;;;;5.13;4.07;;;;;0.50;93182.00;;;;7404341;19;20150;-76
2023/12/08 02:05:04;;;;;;;5.30;3.80;;;;;0.50;93171.00;;;;7404233;19;20471;-74
2023/12/08 02:07:47;;;;;;;5.37;3.57;;;;;0.90;93174.00;;;;7404028;19;20148;-74
2023/12/08 02:10:15;;;;;;;5.63;3.90;;;;;0.90;93176.00;;;;7406559;19;20133;-75
2023/12/08 02:12:52;;;;;;;4.60;3.47;;;;;1.00;93176.00;;;;7403998;19;20226;-75
2023/12/08 02:15:19;;;;;;;4.83;3.63;;;;;1.00;93180.00;;;;7404235;19;20156;-75
2023/12/08 02:18:03;;;;;;;5.20;3.63;;;;;1.20;93168.00;;;;7403132;19;20157;-74
2023/12/08 02:20:32;;;;;;;4.80;3.10;;;;;1.30;93165.00;;;;7405556;19;20649;-75
2023/12/08 02:23:06;;;;;;;3.80;2.90;;;;;1.10;93171.00;;;;7402974;19;20136;-75
2023/12/08 02:25:46;;;;;;;3.77;3.00;;;;;0.90;93171.00;;;;7403559;19;20145;-75
2023/12/08 02:28:21;;;;;;;3.80;2.60;;;;;1.00;93170.00;;;;7404056;19;20494;-74
2023/12/08 02:30:57;;;;;;;3.73;2.77;;;;;1.30;93170.00;;;;7403113;19;20137;-74
2023/12/08 02:33:41;;;;;;;3.23;2.53;;;;;1.50;93170.00;;;;7402790;19;20141;-74
2023/12/08 02:36:17;;;;;;;3.73;2.73;;;;;1.50;93170.00;;;;7403294;19;20133;-76
2023/12/08 02:38:47;;;;;;;2.90;2.13;;;;;1.40;93161.00;;;;7404509;19;20132;-75
2023/12/08 02:41:21;;;;;;;5.07;2.27;;;;;1.60;93163.00;;;;7403193;19;20156;-74
2023/12/08 02:43:55;;;;;;;2.43;1.83;;;;;1.60;93156.00;;;;7403469;19;20613;-76
2023/12/08 02:46:29;;;;;;;3.20;2.33;;;;;1.30;93154.00;;;;7403613;19;20158;-74
2023/12/08 02:48:57;;;;;;;2.17;1.70;;;;;1.80;93133.00;;;;7402909;19;20161;-75
2023/12/08 02:51:36;;;;;;;2.90;1.67;;;;;1.80;93131.00;;;;7403047;19;20143;-74
2023/12/08 02:54:10;;;;;;;2.43;1.80;;;;;1.60;93125.00;;;;7402251;19;20671;-75
2023/12/08 02:56:51;;;;;;;2.17;1.67;;;;;1.80;93121.00;;;;7403533;19;20141;-75
2023/12/08 02:59:21;;;;;;;1.30;1.20;;;;;2.10;93116.00;;;;7402420;19;20149;-75
2023/12/08 03:01:57;;;;;;;1.63;1.20;;;;;2.40;93122.00;;;;7401074;19;20133;-75
2023/12/08 03:04:25;;;;;;;1.50;1.30;;;;;2.20;93104.00;;;;7401543;19;20483;-77
2023/12/08 03:06:53;;;;;;;1.73;1.37;;;;;1.80;93118.00;;;;7402107;19;20607;-77
2023/12/08 03:09:27;;;;;;;1.00;0.90;;;;;1.70;93117.00;;;;7401595;19;20132;-76
2023/12/08 03:11:55;;;;;;;1.67;1.57;;;;;1.50;93133.00;;;;7401612;19;20165;-74
2023/12/08 03:14:34;;;;;;;1.70;1.43;;;;;1.70;93157.00;;;;7401163;19;20583;-77
2023/12/08 03:17:01;;;;;;;1.80;1.47;;;;;1.20;93135.00;;;;7401313;19;20550;-77
2023/12/08 03:19:35;;;;;;;2.83;1.17;;;;;1.00;93143.00;;;;7401230;19;20596;-76
2023/12/08 03:22:06;;;;;;;1.20;1.10;;;;;1.00;93142.00;;;;7401807;19;20129;-76
2023/12/08 03:24:42;;;;;;;1.13;0.90;;;;;0.90;93138.00;;;;7401137;19;20152;-76
2023/12/08 03:27:22;;;;;;;1.40;1.30;;;;;0.90;93112.00;;;;7399009;19;20640;-74
2023/12/08 03:29:52;;;;;;;1.20;1.03;;;;;1.10;93117.00;;;;7399999;19;20166;-75
2023/12/08 03:32:29;;;;;;;2.00;1.27;;;;;1.10;93117.00;;;;7399091;19;20592;-75
2023/12/08 03:34:58;;;;;;;1.10;1.00;;;;;1.00;93120.00;;;;7400786;19;20133;-76
2023/12/08 03:37:33;;;;;;;2.03;1.10;;;;;1.20;93137.00;;;;7400207;19;20128;-75
2023/12/08 03:40:06;;;;;;;1.43;1.27;;;;;1.30;93142.00;;;;7399545;19;20136;-74
2023/12/08 03:42:45;;;;;;;1.57;1.43;;;;;1.40;93158.00;;;;7398441;19;20145;-75
2023/12/08 03:45:13;;;;;;;2.00;1.40;;;;;1.10;93156.00;;;;7402222;19;20150;-77
2023/12/08 03:47:47;;;;;;;1.67;1.30;;;;;1.10;93161.00;;;;7401479;19;20188;-74
2023/12/08 03:50:15;;;;;;;2.43;1.70;;;;;0.70;93157.00;;;;7399511;19;20162;-75
2023/12/08 03:52:54;;;;;;;3.03;1.60;;;;;1.00;93173.00;;;;7401188;19;20140;-75
2023/12/08 03:55:37;;;;;;;4.47;1.63;;;;;0.80;93165.00;;;;7401553;19;20373;-77
2023/12/08 03:58:11;;;;;;;2.10;1.37;;;;;0.80;93168.00;;;;7400857;19;20144;-77
2023/12/08 04:00:45;;;;;;;1.93;1.47;;;;;0.80;93170.00;;;;7399381;19;20164;-76
2023/12/08 04:03:22;;;;;;;1.30;1.20;;;;;0.70;93160.00;;;;7398129;19;20133;-76
2023/12/08 04:05:56;;;;;;;1.57;1.33;;;;;0.90;93161.00;;;;7399287;19;20616;-76
2023/12/08 04:08:30;;;;;;;3.40;1.60;;;;;0.70;93167.00;;;;7400962;19;20568;-76
2023/12/08 04:11:06;;;;;;;2.20;1.60;;;;;0.50;93173.00;;;;7400701;19;20136;-77
2023/12/08 04:13:41;;;;;;;2.30;1.57;;;;;0.70;93173.00;;;;7398275;19;20172;-78
2023/12/08 04:16:15;;;;;;;2.23;1.73;;;;;1.00;93169.00;;;;7399132;19;20128;-75
2023/12/08 04:18:51;;;;;;;4.77;2.00;;;;;1.30;93165.00;;;;7395736;19;20165;-75
2023/12/08 04:21:25;;;;;;;2.43;1.30;;;;;1.20;93153.00;;;;7400616;19;20469;-75
2023/12/08 04:24:02;;;;;;;2.00;1.67;;;;;1.00;93157.00;;;;7398528;19;20148;-76
2023/12/08 04:26:44;;;;;;;1.90;1.40;;;;;0.70;93159.00;;;;7397953;19;20189;-76
2023/12/08 04:29:18;;;;;;;2.97;2.03;;;;;1.30;93163.00;;;;7399753;19;20140;-76
2023/12/08 04:31:46;;;;;;;2.77;2.33;;;;;1.70;93167.00;;;;7398727;19;20627;-75
2023/12/08 04:34:20;;;;;;;2.10;1.90;;;;;1.90;93163.00;;;;7400949;19;20165;-74
2023/12/08 04:36:48;;;;;;;2.37;1.87;;;;;2.10;93153.00;;;;7400056;19;20121;-75
2023/12/08 04:39:20;;;;;;;2.27;1.50;;;;;2.10;93139.00;;;;7398940;19;20144;-77
2023/12/08 04:41:54;;;;;;;2.10;1.70;;;;;2.20;93138.00;;;;7399061;19;20612;-76
2023/12/08 04:44:22;;;;;;;1.90;1.70;;;;;2.10;93135.00;;;;7397072;19;20148;-76
2023/12/08 04:46:53;;;;;;;1.63;1.27;;;;;2.10;93112.00;;;;7397435;19;20133;-74
2023/12/08 04:49:27;;;;;;;1.80;1.57;;;;;2.30;93121.00;;;;7398271;19;20470;-75
2023/12/08 04:51:56;;;;;;;1.80;1.47;;;;;2.20;93105.00;;;;7398047;19;20156;-76
2023/12/08 04:54:30;;;;;;;2.60;1.50;;;;;2.30;93115.00;;;;7398656;19;20601;-75
2023/12/08 04:57:02;;;;;;;2.10;1.50;;;;;2.30;93121.00;;;;7398219;19;20224;-78
2023/12/08 04:59:36;;;;;;;2.03;1.33;;;;;2.20;93108.00;;;;7397994;19;20527;-76
2023/12/08 05:02:06;;;;;;;2.07;1.60;;;;;2.10;93108.00;;;;7399119;19;20136;-76
2023/12/08 05:04:40;;;;;;;2.30;1.70;;;;;2.30;93113.00;;;;7396603;19;20148;-76
2023/12/08 05:07:14;;;;;;;1.67;1.50;;;;;2.30;93115.00;;;;7397688;19;20505;-74
2023/12/08 05:09:49;;;;;;;1.47;1.37;;;;;2.30;93118.00;;;;7397228;19;20152;-75
2023/12/08 05:12:16;;;;;;;2.60;1.57;;;;;2.30;93123.00;;;;7397399;19;20200;-75
2023/12/08 05:14:51;;;;;;;1.93;1.40;;;;;2.40;93118.00;;;;7397265;19;20170;-77
2023/12/08 05:17:26;;;;;;;3.23;1.80;;;;;2.40;93123.00;;;;7396115;19;20621;-76
2023/12/08 05:20:03;;;;;;;2.57;1.80;;;;;2.40;93131.00;;;;7399650;19;20136;-75
2023/12/08 05:22:44;;;;;;;2.33;1.47;;;;;2.30;93127.00;;;;7399056;19;20593;-75
2023/12/08 05:25:18;;;;;;;2.23;1.80;;;;;2.30;93130.00;;;;7396550;19;20477;-76
2023/12/08 05:27:53;;;;;;;3.20;1.90;;;;;2.40;93126.00;;;;7393160;19;20168;-76
2023/12/08 05:30:32;;;;;;;5.87;2.00;;;;;2.40;93129.00;;;;7396815;19;20494;-74
2023/12/08 05:33:06;;;;;;;2.70;2.00;;;;;2.40;93134.00;;;;7396853;19;20133;-74
2023/12/08 05:35:41;;;;;;;2.40;1.93;;;;;2.20;93134.00;;;;7396931;19;20141;-74
2023/12/08 05:38:17;;;;;;;2.90;1.93;;;;;2.30;93135.00;;;;7396421;19;20139;-74
2023/12/08 05:40:51;;;;;;;2.17;1.80;;;;;2.20;93131.00;;;;7396074;19;20200;-74
2023/12/08 05:43:19;;;;;;;3.50;2.20;;;;;2.30;93145.00;;;;7396539;19;20692;-74
2023/12/08 05:45:53;;;;;;;3.40;1.93;;;;;2.30;93139.00;;;;7395606;19;20180;-74
2023/12/08 05:48:32;;;;;;;2.70;1.77;;;;;2.40;93142.00;;;;7397498;19;20133;-74
2023/12/08 05:51:09;;;;;;;3.23;1.90;;;;;2.30;93147.00;;;;7395360;19;20177;-74
2023/12/08 05:53:39;;;;;;;5.50;2.30;;;;;2.30;93155.00;;;;7396360;19;20593;-73
2023/12/08 05:56:18;;;;;;;3.03;2.00;;;;;2.30;93159.00;;;;7397396;19;20133;-74
2023/12/08 05:58:54;;;;;;;3.33;1.97;;;;;2.30;93153.00;;;;7396782;19;20462;-74
2023/12/08 06:01:28;;;;;;;3.40;2.30;;;;;2.10;93141.00;;;;7395619;19;20469;-73
2023/12/08 06:04:10;;;;;;;3.83;1.80;;;;;2.10;93143.00;;;;7395223;19;20145;-74
2023/12/08 06:06:43;;;;;;;3.53;2.20;;;;;2.00;93142.00;;;;7396051;19;20216;-73
2023/12/08 06:09:18;;;;;;;4.23;2.40;;;;;2.00;93146.00;;;;7396088;19;20210;-74
2023/12/08 06:11:45;;;;;;;6.00;2.20;;;;;1.90;93156.00;;;;7397545;19;20197;-75
2023/12/08 06:14:20;;;;;;;3.20;2.07;;;;;2.00;93156.00;;;;7394248;19;20140;-74
2023/12/08 06:16:54;;;;;;;3.77;2.40;;;;;1.80;93155.00;;;;7391832;19;20145;-74
2023/12/08 06:19:28;;;;;;;2.70;2.20;;;;;1.90;93156.00;;;;7396721;19;20128;-74
2023/12/08 06:21:56;;;;;;;5.47;2.23;;;;;1.80;93145.00;;;;7395854;19;20621;-75
2023/12/08 06:24:32;;;;;;;3.30;2.20;;;;;1.80;93155.00;;;;7378392;19;20161;-76
2023/12/08 06:27:11;;;;;;;3.07;2.10;;;;;1.90;93156.00;;;;7379674;19;20180;-74
2023/12/08 06:29:45;;;;;;;2.63;2.30;;;;;1.90;93151.00;;;;7382845;19;20136;-75
2023/12/08 06:32:13;;;;;;;3.23;1.87;;;;;2.00;93145.00;;;;7381326;19;20625;-74
2023/12/08 06:34:53;;;;;;;2.23;2.03;;;;;2.00;93159.00;;;;7382463;19;20152;-75
2023/12/08 06:37:32;;;;;;;3.00;2.10;;;;;2.10;93152.00;;;;7381793;19;20157;-76
2023/12/08 06:40:07;;;;;;;2.93;2.17;;;;;2.10;93145.00;;;;7387590;19;20163;-75
2023/12/08 06:42:36;;;;;;;4.27;2.10;;;;;2.00;93151.00;;;;7388261;19;20144;-75
2023/12/08 06:45:19;;;;;;;3.30;2.30;;;;;2.10;93145.00;;;;7390566;19;20136;-74
2023/12/08 06:47:48;;;;;;;2.07;1.87;;;;;2.20;93136.00;;;;7388538;19;20156;-76
2023/12/08 06:50:30;;;;;;;2.23;1.80;;;;;2.10;93146.00;;;;7389071;19;20140;-74
2023/12/08 06:52:59;;;;;;;3.33;1.97;;;;;2.20;93155.00;;;;7381893;19;20144;-75
2023/12/08 06:55:34;;;;;;;2.87;2.10;;;;;2.20;93153.00;;;;7390174;19;20158;-75
2023/12/08 06:58:17;;;;;;;2.30;1.80;;;;;2.20;93152.00;;;;7390081;19;20132;-73
2023/12/08 07:01:14;;;;;;;3.40;1.93;;;;;2.10;93153.00;;;;7390662;19;20585;-74
2023/12/08 07:04:06;;;;;;;7.17;2.30;;;;;2.10;93153.00;;;;7391670;19;20181;-74
2023/12/08 07:06:52;;;;;;;105.37;54.23;;;;;2.20;93153.00;;;;7387140;19;20168;-74
2023/12/08 07:09:37;;;;;;;29.73;17.03;;;;;2.30;93153.00;;;;7390798;19;20148;-75
2023/12/08 07:12:08;;;;;;;2.43;1.60;;;;;2.50;93147.00;;;;7390827;19;20152;-73
2023/12/08 07:14:43;;;;;;;2.93;1.70;;;;;2.50;93154.00;;;;7389493;19;20148;-74
2023/12/08 07:17:12;;;;;;;1.93;1.30;;;;;2.60;93147.00;;;;7387530;19;20148;-75
2023/12/08 07:19:39;;;;;;;2.20;2.03;;;;;2.70;93133.00;;;;7389592;19;20722;-74
2023/12/08 07:22:23;;;;;;;1.50;1.40;;;;;2.70;93141.00;;;;7388921;19;20140;-74
2023/12/08 07:24:59;;;;;;;1.80;1.33;;;;;2.70;93139.00;;;;7389133;19;20165;-73
2023/12/08 07:27:28;;;;;;;2.80;2.50;;;;;2.60;93147.00;;;;7388403;19;20156;-76
2023/12/08 07:30:09;;;;;;;1.70;1.60;;;;;2.70;93151.00;;;;7389168;19;20489;-76
2023/12/08 07:32:37;;;;;;;1.37;1.17;;;;;2.80;93143.00;;;;7388489;19;20148;-74
2023/12/08 07:35:11;;;;;;;1.07;0.87;;;;;2.90;93154.00;;;;7388313;19;20608;-76
2023/12/08 07:37:40;;;;;;;2.17;0.90;;;;;3.00;93153.00;;;;7388705;19;20158;-75
2023/12/08 07:40:15;;;;;;;1.20;0.90;;;;;3.10;93144.00;;;;7387804;19;20149;-73
2023/12/08 07:42:46;;;;;;;0.70;0.70;;;;;3.10;93153.00;;;;7388716;19;20148;-75
2023/12/08 07:45:22;;;;;;;1.07;0.97;;;;;3.20;93157.00;;;;7388518;19;20152;-74
2023/12/08 07:47:57;;;;;;;0.63;0.63;;;;;3.30;93156.00;;;;7386959;19;20144;-74
2023/12/08 07:50:30;;;;;;;0.50;0.50;;;;;3.40;93167.00;;;;7387037;19;22906;-75
2023/12/08 07:53:02;;;;;;;0.70;0.70;;;;;3.40;93174.00;;;;7389272;19;20145;-76
2023/12/08 07:55:38;;;;;;;1.00;0.80;;;;;3.50;93176.00;;;;7387495;19;20212;-77
2023/12/08 07:58:08;;;;;;;0.77;0.60;;;;;3.50;93173.00;;;;7389434;19;20149;-74
2023/12/08 08:00:43;;;;;;;0.70;0.70;;;;;3.60;93170.00;;;;7386780;19;20493;-76
2023/12/08 08:03:26;;;;;;;0.50;0.50;;;;;3.60;93169.00;;;;7389630;19;20499;-75
2023/12/08 08:06:07;;;;;;;0.60;0.60;;;;;3.70;93179.00;;;;7388995;19;21460;-75
2023/12/08 08:08:36;;;;;;;0.30;0.30;;;;;3.70;93177.00;;;;7387349;19;20128;-75
2023/12/08 08:11:10;;;;;;;0.67;0.60;;;;;3.70;93188.00;;;;7388151;19;20144;-76
2023/12/08 08:13:38;;;;;;;0.60;0.60;;;;;3.70;93194.00;;;;7388141;19;20180;-76
2023/12/08 08:16:12;;;;;;;0.50;0.50;;;;;3.80;93193.00;;;;7383728;19;20140;-75
2023/12/08 08:18:46;;;;;;;0.80;0.40;;;;;3.90;93200.00;;;;7385482;19;20533;-74
2023/12/08 08:21:23;;;;;;;0.47;0.47;;;;;3.90;93207.00;;;;7386448;19;20152;-74
2023/12/08 08:23:50;;;;;;;0.33;0.33;;;;;3.90;93202.00;;;;7386345;19;20159;-76
2023/12/08 08:26:24;;;;;;;0.50;0.40;;;;;4.00;93205.00;;;;7386124;19;20149;-77
2023/12/08 08:29:07;;;;;;;0.20;0.20;;;;;4.00;93221.00;;;;7385268;19;20173;-78
2023/12/08 08:31:44;;;;;;;0.50;0.50;;;;;3.90;93220.00;;;;7386849;19;20211;-76
2023/12/08 08:34:12;;;;;;;0.40;0.40;;;;;3.90;93227.00;;;;7389619;19;20170;-76
2023/12/08 08:36:47;;;;;;;0.20;0.20;;;;;3.90;93221.00;;;;7388940;19;20143;-75
2023/12/08 08:39:15;;;;;;;0.50;0.50;;;;;3.90;93229.00;;;;7388990;19;20516;-77
2023/12/08 08:41:50;;;;;;;0.90;0.40;;;;;3.90;93230.00;;;;7387528;19;20159;-76
2023/12/08 08:44:18;;;;;;;0.50;0.50;;;;;3.90;93235.00;;;;7389357;19;20144;-76
2023/12/08 08:46:55;;;;;;;0.40;0.40;;;;;3.80;93236.00;;;;7386837;19;20487;-76
2023/12/08 08:49:29;;;;;;;0.60;0.50;;;;;4.00;93225.00;;;;7387621;19;20147;-76
2023/12/08 08:52:03;;;;;;;0.70;0.40;;;;;3.80;93232.00;;;;7387002;19;20207;-76
2023/12/08 08:54:31;;;;;;;0.80;0.50;;;;;3.70;93230.00;;;;7387874;19;20157;-79
2023/12/08 08:56:59;;;;;;;0.40;0.40;;;;;3.70;93235.00;;;;7388386;19;20157;-77
2023/12/08 08:59:34;;;;;;;0.50;0.50;;;;;3.90;93228.00;;;;7385832;19;20125;-76
2023/12/08 09:02:04;;;;;;;0.30;0.30;;;;;3.90;93232.00;;;;7383421;19;20145;-78
2023/12/08 09:04:38;;;;;;;1.03;0.40;;;;;4.10;93239.00;;;;7386981;19;20497;-79
2023/12/08 09:07:06;;;;;;;1.37;0.50;;;;;4.00;93239.00;;;;7386282;19;20260;-73
2023/12/08 09:09:40;;;;;;;0.87;0.30;;;;;4.10;93246.00;;;;7387571;19;20132;-75
2023/12/08 09:12:11;;;;;;;1.73;0.43;;;;;3.90;93245.00;;;;7386474;19;20212;-76
2023/12/08 09:14:39;;;;;;;0.60;0.23;;;;;4.00;93241.00;;;;7383905;19;20129;-75
2023/12/08 09:17:13;;;;;;;0.70;0.30;;;;;4.20;93243.00;;;;7383113;19;20165;-75
2023/12/08 09:19:41;;;;;;;0.43;0.40;;;;;4.20;93244.00;;;;7385262;19;20164;-75
2023/12/08 09:22:18;;;;;;;0.67;0.40;;;;;4.10;93245.00;;;;7384891;19;20180;-76
2023/12/08 09:24:54;;;;;;;2.20;0.60;;;;;3.90;93249.00;;;;7385470;19;20152;-76
2023/12/08 09:27:22;;;;;;;2.00;0.60;;;;;3.90;93254.00;;;;7385141;19;20181;-74
2023/12/08 09:30:05;;;;;;;5.43;1.00;;;;;3.90;93251.00;;;;7381895;19;20137;-77
2023/12/08 09:32:41;;;;;;;7.93;1.50;;;;;3.90;93251.00;;;;7384599;19;20144;-77
2023/12/08 09:35:17;;;;;;;3.20;1.33;;;;;3.90;93252.00;;;;7383286;19;20625;-77
2023/12/08 09:37:51;;;;;;;13.63;1.27;;;;;3.90;93243.00;;;;7380433;19;20156;-77
2023/12/08 09:40:27;;;;;;;19.00;1.70;;;;;4.10;93245.00;;;;7377994;19;20500;-76
2023/12/08 09:43:18;;;;;;;4.13;1.23;;;;;3.90;93250.00;;;;7382237;19;20129;-76
2023/12/08 09:45:47;;;;;;;0.77;0.70;;;;;3.90;93252.00;;;;7382026;19;20156;-75
2023/12/08 09:48:25;;;;;;;0.57;0.53;;;;;3.80;93257.00;;;;7381536;19;20644;-76
2023/12/08 09:51:01;;;;;;;0.40;0.40;;;;;3.80;93253.00;;;;7382819;19;20231;-76
2023/12/08 09:53:31;;;;;;;0.10;0.10;;;;;3.80;93259.00;;;;7382768;19;20148;-78
2023/12/08 09:56:05;;;;;;;0.30;0.30;;;;;3.90;93244.00;;;;7382275;19;20145;-77
2023/12/08 09:58:41;;;;;;;0.53;0.37;;;;;3.90;93250.00;;;;7383324;19;20633;-76
2023/12/08 10:01:17;;;;;;;0.83;0.40;;;;;4.00;93248.00;;;;7381330;19;20148;-77
2023/12/08 10:03:51;;;;;;;0.37;0.27;;;;;4.30;93255.00;;;;7382952;19;21029;-76
2023/12/08 10:06:28;;;;;;;0.30;0.30;;;;;4.60;93250.00;;;;7382862;19;20124;-76
2023/12/08 10:09:04;;;;;;;0.23;0.20;;;;;4.70;93238.00;;;;7382623;19;20139;-77
2023/12/08 10:11:39;;;;;;;1.73;0.63;;;;;5.00;93243.00;;;;7381275;19;20169;-78
2023/12/08 10:14:15;;;;;;;0.40;0.40;;;;;5.00;93241.00;;;;7384343;19;20160;-78
2023/12/08 10:16:49;;;;;;;1.17;0.30;;;;;4.90;93244.00;;;;7387606;19;20152;-78
2023/12/08 10:19:24;;;;;;;0.50;0.50;;;;;4.90;93248.00;;;;7386898;19;20604;-77
2023/12/08 10:22:00;;;;;;;0.40;0.40;;;;;5.30;93239.00;;;;7387673;19;20152;-78
2023/12/08 10:24:34;;;;;;;1.20;0.40;;;;;5.20;93237.00;;;;7387229;19;20178;-78
2023/12/08 10:27:15;;;;;;;0.30;0.27;;;;;5.40;93234.00;;;;7387098;19;20190;-80
2023/12/08 10:29:50;;;;;;;0.57;0.37;;;;;5.60;93235.00;;;;7384285;19;20133;-78
2023/12/08 10:32:24;;;;;;;0.93;0.37;;;;;5.40;93230.00;;;;7385976;19;20152;-76
2023/12/08 10:35:10;;;;;;;0.30;0.30;;;;;5.70;93226.00;;;;7386341;19;20187;-77
2023/12/08 10:37:44;;;;;;;0.20;0.20;;;;;5.90;93219.00;;;;7385927;19;20144;-75
2023/12/08 10:40:17;;;;;;;0.20;0.20;;;;;6.10;93218.00;;;;7386550;19;20145;-77
2023/12/08 10:42:53;;;;;;;0.40;0.30;;;;;6.20;93228.00;;;;7387105;19;20128;-74
2023/12/08 10:45:27;;;;;;;0.20;0.20;;;;;6.10;93219.00;;;;7385770;19;20576;-74
2023/12/08 10:47:58;;;;;;;0.40;0.30;;;;;5.80;93216.00;;;;7386218;19;20153;-75
2023/12/08 10:50:33;;;;;;;0.20;0.20;;;;;6.20;93209.00;;;;7388171;19;20493;-77
2023/12/08 10:53:09;;;;;;;0.30;0.30;;;;;6.40;93206.00;;;;7387233;19;20609;-76
2023/12/08 10:55:44;;;;;;;0.77;0.27;;;;;6.40;93209.00;;;;7386245;19;20222;-76
2023/12/08 10:58:21;;;;;;;4.33;3.33;;;;;6.40;93215.00;;;;7385804;19;20148;-75
2023/12/08 11:00:57;;;;;;;5.97;5.30;;;;;6.10;93207.00;;;;7384324;19;20593;-74
2023/12/08 11:03:39;;;;;;;6.00;4.93;;;;;5.90;93218.00;;;;7384751;19;20157;-74
2023/12/08 11:06:30;;;;;;;7.30;4.93;;;;;5.60;93229.00;;;;7385343;19;20307;-74
2023/12/08 11:09:09;;;;;;;4.67;4.07;;;;;5.40;93230.00;;;;7385722;19;20163;-74
2023/12/08 11:11:51;;;;;;;4.97;3.97;;;;;5.30;93226.00;;;;7385573;19;20498;-76
2023/12/08 11:15:06;;;;;;;5.63;4.40;;;;;5.10;93237.00;;;;7385032;19;20252;-79
2023/12/08 11:17:58;;;;;;;6.63;5.40;;;;;4.90;93220.00;;;;7383851;19;20208;-76
2023/12/08 11:20:38;;;;;;;4.80;4.20;;;;;4.80;93228.00;;;;7386180;19;20133;-76
2023/12/08 11:23:13;;;;;;;6.43;4.80;;;;;4.70;93228.00;;;;7386663;19;20136;-75
2023/12/08 11:25:56;;;;;;;4.53;3.90;;;;;5.10;93233.00;;;;7384090;19;20181;-76
2023/12/08 11:28:57;;;;;;;11.40;7.73;;;;;5.20;93240.00;;;;7385518;19;20264;-74
2023/12/08 11:31:55;;;;;;;10.70;6.67;;;;;5.10;93236.00;;;;7385186;19;20152;-76
2023/12/08 11:35:05;;;;;;;6.93;4.90;;;;;5.20;93249.00;;;;7388646;19;20132;-77
2023/12/08 11:37:44;;;;;;;6.13;4.80;;;;;5.20;93247.00;;;;7385394;19;20152;-74
2023/12/08 11:40:19;;;;;;;5.83;4.00;;;;;5.10;93249.00;;;;7384274;19;20181;-74
2023/12/08 11:42:53;;;;;;;5.50;4.90;;;;;5.20;93233.00;;;;7385276;19;20167;-75
2023/12/08 11:45:31;;;;;;;7.53;5.23;;;;;5.30;93243.00;;;;7386771;19;20586;-74
2023/12/08 11:48:11;;;;;;;5.83;4.77;;;;;5.30;93224.00;;;;7386877;19;20136;-76
2023/12/08 11:50:47;;;;;;;0.80;0.70;;;;;5.70;93234.00;;;;7386822;19;20136;-75
2023/12/08 11:53:15;;;;;;;0.43;0.43;;;;;6.20;93228.00;;;;7387572;19;20447;-76
2023/12/08 11:55:51;;;;;;;3.20;2.87;;;;;6.10;93230.00;;;;7385316;19;20239;-76
2023/12/08 11:58:33;;;;;;;0.57;0.50;;;;;6.30;93231.00;;;;7384433;19;20620;-75
2023/12/08 12:01:10;;;;;;;5.73;3.20;;;;;6.10;93223.00;;;;7383384;19;20128;-75
2023/12/08 12:03:46;;;;;;;15.53;11.60;;;;;6.00;93220.00;;;;7385867;19;20533;-77
2023/12/08 12:06:20;;;;;;;6.60;5.37;;;;;6.50;93223.00;;;;7384177;19;20156;-77
2023/12/08 12:08:51;;;;;;;5.17;4.00;;;;;6.10;93228.00;;;;7384193;19;20224;-77
2023/12/08 12:11:31;;;;;;;5.70;4.20;;;;;6.00;93236.00;;;;7386653;19;20597;-76
2023/12/08 12:14:07;;;;;;;0.80;0.77;;;;;6.10;93237.00;;;;7382686;19;20201;-75
2023/12/08 12:16:41;;;;;;;0.60;0.60;;;;;6.10;93247.00;;;;7383873;19;20137;-77
2023/12/08 12:19:22;;;;;;;1.70;1.33;;;;;6.20;93241.00;;;;7383385;19;20152;-76
2023/12/08 12:21:58;;;;;;;0.80;0.60;;;;;6.10;93244.00;;;;7382701;19;20154;-76
2023/12/08 12:24:34;;;;;;;0.43;0.43;;;;;6.10;93249.00;;;;7382825;19;20176;-76
2023/12/08 12:27:08;;;;;;;0.47;0.47;;;;;6.10;93253.00;;;;7384408;19;20176;-78
2023/12/08 12:29:50;;;;;;;0.30;0.30;;;;;6.10;93245.00;;;;7384965;19;20148;-76
2023/12/08 12:32:18;;;;;;;0.47;0.47;;;;;6.10;93250.00;;;;7385733;19;20184;-76
2023/12/08 12:34:52;;;;;;;0.93;0.30;;;;;6.10;93255.00;;;;7386368;19;20144;-76
2023/12/08 12:37:21;;;;;;;0.30;0.30;;;;;6.20;93257.00;;;;7383245;19;20141;-75
2023/12/08 12:40:08;;;;;;;0.40;0.40;;;;;6.30;93255.00;;;;7385192;19;23796;-73
2023/12/08 12:42:44;;;;;;;5.37;3.83;;;;;6.20;93253.00;;;;7385034;19;20270;-76
2023/12/08 12:45:30;;;;;;;8.17;5.43;;;;;5.70;93263.00;;;;7383160;19;20140;-73
2023/12/08 12:48:05;;;;;;;28.13;14.80;;;;;5.80;93260.00;;;;7387121;19;20145;-72
2023/12/08 12:50:55;;;;;;;16.07;9.70;;;;;5.40;93254.00;;;;7385395;19;20148;-75
2023/12/08 12:53:29;;;;;;;43.60;25.27;;;;;5.10;93256.00;;;;7381774;19;20212;-75
2023/12/08 12:56:07;;;;;;;12.03;8.27;;;;;5.40;93252.00;;;;7386779;19;20453;-74
2023/12/08 12:58:37;;;;;;;9.77;7.10;;;;;5.60;93262.00;;;;7381652;19;20169;-75
2023/12/08 13:01:13;;;;;;;12.63;8.47;;;;;5.70;93256.00;;;;7379994;19;20479;-73
2023/12/08 13:03:46;;;;;;;11.37;7.87;;;;;5.70;93253.00;;;;7382987;19;20163;-72
2023/12/08 13:06:28;;;;;;;8.17;5.23;;;;;5.80;93262.00;;;;7383992;19;20616;-76